METAR Data
IDs: Format: Raw Decoded Include TAF

Data at: 1420 UTC 12 Dec 2018

PAOH 121356Z AUTO 06006KT 10SM FEW036 SCT055 01/01 A2936 RMK AO2 RAE06UPB06E34 SLP943 P0000 T00060006 FZRANO
PAOH 121323Z AUTO 06004KT 10SM UP FEW008 SCT019 BKN042 00/00 A2936 RMK AO2 RAE06UPB06 P0000 FZRANO
PAOH 121256Z AUTO 00000KT 10SM -RA BKN015 OVC022 01/00 A2936 RMK AO2 RAB05SNE05B42E51 SLP943 P0001 T00060000 FZRANO
PAOH 121237Z AUTO 00000KT 10SM -RA FEW013 BKN020 OVC043 01/00 A2936 RMK AO2 RAB05SNE05 P0001 FZRANO
PAOH 121210Z AUTO 00000KT 10SM -RA FEW014 SCT023 OVC041 01/00 A2934 RMK AO2 RAB05SNE05 P0000 FZRANO
PAOH 121203Z AUTO 00000KT 9SM -SN FEW012 BKN023 OVC049 01/00 A2934 RMK AO2 P0000 FZRANO
PAOH 121156Z AUTO 02003KT 8SM -SN FEW007 BKN014 OVC050 01/00 A2934 RMK AO2 UPB1058E07RAB07E14SNB14 SLP936 P0002 60006 70057 T00060000 10017 20000 50015 FZRANO
PAOH 121135Z AUTO VRB04KT 4SM -SN BR FEW007 BKN011 OVC022 01/00 A2934 RMK AO2 UPB1058E07RAB07E14SNB14 P0001 FZRANO
PAOH 121128Z AUTO VRB04KT 5SM -SN BR BKN011 BKN022 OVC035 01/01 A2934 RMK AO2 UPB1058E07RAB07E14SNB14 CIG 007V014 P0001 FZRANO
PAOH 121056Z AUTO VRB03KT 10SM BKN050 BKN065 OVC110 01/01 A2932 RMK AO2 RAE14 SLP929 P0000 T00110006 FZRANO
PAOH 120956Z AUTO 09003KT 10SM -RA SCT036 BKN049 OVC095 01/01 A2929 RMK AO2 SLP921 P0002 T00110006 FZRANO
PAOH 120914Z AUTO 33005KT 10SM FEW015 SCT023 BKN030 02/01 A2928 RMK AO2 RAE13 P0001 FZRANO
PAOH 120856Z AUTO 20003KT 10SM RA SCT015 BKN027 OVC036 02/01 A2927 RMK AO2 RAB35 SLP913 P0000 60002 T00170011 51027 FZRANO
PAOH 120756Z AUTO 00000KT 10SM FEW014 BKN034 OVC044 02/01 A2923 RMK AO2 RAB24E54 SLP899 P0002 T00170011 400500000 FZRANO
PAOH 120754Z AUTO 00000KT 10SM FEW014 BKN034 OVC044 02/01 A2923 RMK AO2 RAB24E54 P0002 400500000 FZRANO
PAOH 120738Z AUTO VRB04KT 10SM -RA FEW013 BKN025 OVC038 01/01 A2923 RMK AO2 RAB24 P0001 FZRANO
PAOH 120656Z AUTO 00000KT 10SM FEW036 SCT047 01/00 A2919 RMK AO2 RAE32 SLP885 P0000 T00060000 FZRANO
PAOH 120556Z AUTO VRB04KT 10SM -RA SCT029 BKN035 BKN043 02/01 A2915 RMK AO2 RAE18B51UPB46E51 SLP872 P0003 60018 T00170011 10017 20000 53030 FZRANO
PAOH 120518Z AUTO 32003KT 10SM FEW020 BKN035 OVC090 02/01 A2914 RMK AO2 RAE18 P0002 FZRANO
PAOH 120456Z AUTO VRB03KT 10SM RA SCT021 BKN026 OVC043 02/02 A2913 RMK AO2 RAB09 SLP864 P0005 T00170017 FZRANO
PAOH 120417Z AUTO VRB03KT 10SM RA FEW002 SCT021 OVC028 01/01 A2910 RMK AO2 RAB09 PRESRR P0001 FZRANO
PAOH 120403Z AUTO 00000KT 10SM FEW002 BKN030 00/00 A2908 RMK AO2 FZRANO
PAOH 120356Z AUTO 00000KT 8SM BKN002 BKN030 01/00 A2908 RMK AO2 RAE35 SLP847 P0002 T00060000 FZRANO
PAOH 120348Z AUTO 00000KT 9SM SCT002 BKN030 BKN037 01/00 A2907 RMK AO2 RAE35 P0002 FZRANO
PAOH 120332Z AUTO 00000KT 10SM -RA SCT002 BKN022 BKN028 01/01 A2907 RMK AO2 P0002 FZRANO
PAOH 120318Z AUTO 00000KT 10SM -RA BKN022 OVC031 01/01 A2906 RMK AO2 P0002 FZRANO
PAOH 120256Z AUTO 00000KT 10SM -RA FEW021 BKN033 OVC042 01/01 A2906 RMK AO2 RAB06 SLP842 P0003 60008 T00060006 51010 FZRANO
PAOH 120251Z AUTO 00000KT 10SM -RA FEW019 BKN040 OVC047 01/01 A2906 RMK AO2 RAB06 P0003 FZRANO
PAOH 120232Z AUTO 04003KT 10SM RA SCT017 BKN024 OVC042 01/01 A2905 RMK AO2 RAB06 P0002 FZRANO
PAOH 120156Z AUTO 00000KT 10SM FEW001 BKN035 BKN050 01/01 A2905 RMK AO2 RAE33 SLP838 P0002 T00060006 FZRANO
PAOH 120133Z AUTO 00000KT 10SM FEW001 OVC036 01/01 A2904 RMK AO2 RAE33 P0002 FZRANO
PAOH 120056Z AUTO 07004KT 10SM -RA FEW030 BKN043 OVC055 01/01 A2903 RMK AO2 RAB01 SLP832 P0003 T00060006 FZRANO
PAOH 120003Z AUTO 00000KT 10SM -RA BKN031 BKN047 OVC070 01/00 A2902 RMK AO2 RAB01 P0000 FZRANO
PAOH 112356Z AUTO 05003KT 10SM BKN029 OVC070 01/00 A2901 RMK AO2 RAE2259B25E50 SLP825 P0002 60029 T00060000 10022 20006 53019 FZRANO
PAOH 112321Z AUTO 00000KT 10SM FEW002 BKN028 OVC095 01/00 A2899 RMK AO2 RAE2259 P0000 FZRANO
PAOH 112311Z AUTO 00000KT 10SM FEW002 BKN045 OVC095 01/00 A2899 RMK AO2 RAE2259 P0000 FZRANO
PAOH 112256Z AUTO 00000KT 10SM -RA SCT027 BKN035 OVC075 01/01 A2898 RMK AO2 SLP815 P0003 T00060006 FZRANO
PAOH 112253Z AUTO 00000KT 10SM -RA BKN027 BKN037 OVC075 01/01 A2898 RMK AO2 P0003 FZRANO
PAOH 112241Z AUTO 00000KT 10SM -RA FEW025 OVC033 01/01 A2898 RMK AO2 P0002 FZRANO
PAOH 112233Z AUTO 00000KT 10SM -RA SCT025 BKN029 OVC049 01/01 A2897 RMK AO2 P0002 FZRANO
PAOH 112156Z AUTO 00000KT 9SM -RA SCT029 BKN033 OVC041 01/00 A2895 RMK AO2 UPE19RAB2057 SLP805 P0005 T00060000 FZRANO
PAOH 112147Z AUTO 00000KT 8SM -RA FEW024 OVC032 01/00 A2895 RMK AO2 UPE19RAB2057 P0005 FZRANO
PAOH 112130Z AUTO 00000KT 7SM -RA BKN023 OVC030 01/00 A2894 RMK AO2 UPE19RAB2057 P0004 FZRANO
PAOH 112120Z AUTO 00000KT 2SM -RA BR OVC023 01/01 A2894 RMK AO2 VIS 1/4V5 UPE19RAB2057 P0003 FZRANO
PAOH 112056Z AUTO 00000KT 8SM UP SCT016 BKN023 OVC029 01/00 A2892 RMK AO2 UPB31RAB36E51SNE31 SLP795 P0005 60019 T00060000 51028 FZRANO
PAOH 112029Z AUTO 00000KT 5SM -SN BR FEW007 BKN016 OVC027 01/00 A2891 RMK AO2 P0002 FZRANO
PAOH 112019Z AUTO 34004KT 2SM -SN BR FEW007 OVC016 01/00 A2891 RMK AO2 P0001 FZRANO
PAOH 112011Z AUTO 00000KT 2SM -SN BR SCT008 OVC014 01/00 A2890 RMK AO2 VIS 1V4 P0000 FZRANO
PAOH 112003Z AUTO VRB03KT 2 1/2SM -SN BR BKN008 OVC016 01/00 A2890 RMK AO2 VIS 1V4 CIG 006V011 P0000 FZRANO
PAOH 112000Z AUTO 00000KT 2 1/2SM -SN BR FEW005 SCT010 OVC016 01/00 A2890 RMK AO2 VIS 1 1/4V5 P0000 FZRANO
PAOH 111956Z AUTO 34003KT 2SM -SN BR BKN010 OVC016 01/00 A2890 RMK AO2 VIS 1V5 RAE09UPB18E25SNB09E18B25 CIG 008V013 SLP786 P0005 T00060000 FZRANO
PAOH 111947Z AUTO 00000KT 2SM -SN BR FEW005 OVC010 01/00 A2889 RMK AO2 VIS 1 1/2V4 RAE09UPB18E25SNB09E18B25 CIG 008V012 P0005 FZRANO
PAOH 111937Z AUTO 28003KT 1 1/2SM -SN BR BKN010 OVC013 01/00 A2889 RMK AO2 VIS 1/2V4 RAE09UPB18E25SNB09E18B25 CIG 006V012 P0005 FZRANO
PAOH 111912Z AUTO 27006KT 8SM -SN FEW008 BKN014 OVC019 02/01 A2888 RMK AO2 RAE09SNB09 P0004 FZRANO
PAOH 111856Z AUTO 32003KT 8SM RA FEW006 OVC019 02/02 A2887 RMK AO2 SLP777 P0009 T00220022 FZRANO
PAOH 111811Z AUTO 00000KT 6SM -RA BR FEW004 OVC026 02/02 A2885 RMK AO2 P0001 FZRANO
PAOH 111756Z AUTO 00000KT 4SM -RA BR FEW004 OVC030 02/02 A2884 RMK AO2 RAB18 SLP767 P0001 60004 T00220022 10033 20022 53007 FZRANO
PAOH 111727Z AUTO 00000KT 10SM -RA FEW003 OVC032 02/02 A2883 RMK AO2 RAB18 P0000 FZRANO
PAOH 111716Z AUTO 00000KT 10SM BKN003 OVC032 02/02 A2883 RMK AO2 CIG 001V005 FZRANO
PAOH 111701Z AUTO 00000KT 2 1/2SM BR BKN003 BKN007 OVC035 02/02 A2882 RMK AO2 CIG 002V006 FZRANO
PAOH 111653Z AUTO 00000KT 9SM BKN005 OVC035 02/02 A2882 RMK AO2 RAE10 CIG 003V007 SLP759 P0000 T00220022 FZRANO
PAOH 111652Z AUTO 00000KT 10SM BKN005 OVC035 02/02 A2882 RMK AO2 RAE10 CIG 003V007 P0000 FZRANO
PAOH 111645Z AUTO 00000KT 10SM SCT007 OVC035 02/02 A2882 RMK AO2 RAE10 P0000 FZRANO
PAOH 111556Z AUTO 00000KT 10SM -RA SCT014 OVC039 03/02 A2881 RMK AO2 UPB17E21B41E54 SLP757 P0000 T00280022
PAOH 111522Z AUTO 09003KT 10SM FEW014 SCT019 OVC037 03/02 A2881 RMK AO2 RAE17UPB17E21 P0000
PAOH 111456Z AUTO 00000KT 10SM -RA BKN012 OVC034 03/02 A2882 RMK AO2 SLP760 P0001 60003 T00280022 56003
PAOH 111452Z AUTO 00000KT 10SM -RA BKN012 OVC030 03/02 A2882 RMK AO2 P0001
PAOH 111356Z AUTO 00000KT 10SM -RA FEW023 BKN039 OVC048 03/02 A2883 RMK AO2 UPB21E32 SLP762 P0002 T00280022
PAOH 111352Z AUTO 13003KT 10SM -RA FEW023 BKN039 OVC048 03/03 A2883 RMK AO2 UPB21E32 P0002
PAOH 111340Z AUTO 00000KT 10SM -RA FEW023 BKN029 OVC060 03/03 A2883 RMK AO2 UPB21E32 P0001
PAOH 111256Z AUTO 00000KT 10SM -RA BKN045 OVC055 03/03 A2884 RMK AO2 SLP765 P0000 T00330028
PAOH 111156Z AUTO 00000KT 10SM -RA SCT025 OVC033 03/03 A2886 RMK AO2 RAE1057B27 SLP773 P0000 60001 70079 T00280028 10056 20028 58015
PAOH 111120Z AUTO 10004KT 10SM BKN027 BKN033 OVC042 03/03 A2887 RMK AO2 RAE1057
PAOH 111056Z AUTO 12005KT 10SM -RA FEW027 OVC039 03/03 A2888 RMK AO2 RAB30 SLP779 P0000 T00330028
PAOH 110956Z AUTO 07006KT 10SM OVC041 03/03 A2889 RMK AO2 RAE44 SLP783 P0001 T00330028
PAOH 110856Z AUTO 10005KT 10SM -RA OVC036 04/03 A2890 RMK AO2 RAB34 SLP788 P0000 60000 T00390028 56011
PAOH 110756Z AUTO 08005KT 10SM SCT023 OVC045 04/03 A2890 RMK AO2 RAE18 SLP788 P0000 T00440028 400560011
PAOH 110656Z AUTO VRB03KT 10SM -RA BKN028 OVC033 04/03 A2892 RMK AO2 SLP796 P0000 T00440028
PAOH 110556Z AUTO 07007G15KT 030V120 10SM -RA OVC029 04/02 A2893 RMK AO2 SLP799 P0002 60027 T00440022 10056 20039 56013
PAOH 110456Z AUTO VRB04G18KT 10SM -RA OVC028 04/02 A2895 RMK AO2 SLP803 P0002 T00440017
PAOH 110405Z AUTO 10012G18KT 060V220 9SM -RA OVC028 04/02 A2896 RMK AO2 P0000
PAOH 110356Z AUTO 08010G15KT 10SM -RA BKN030 OVC036 04/02 A2895 RMK AO2 SLP805 P0004 T00440022
PAOH 110349Z AUTO 05005KT 10SM -RA OVC032 05/02 A2896 RMK AO2 P0003
PAOH 110256Z AUTO 10010G15KT 8SM -RA BKN024 OVC031 04/02 A2897 RMK AO2 PK WND 09036/0211 SLP812 P0007 60019 T00440022 56049